Time;durP1;ratioP1;P1;durP2;ratioP2;P2;SDS_P1;SDS_P2;PMS_P1;PMS_P2;Temp;Humidity;BMP_temperature;BMP_pressure;BME280_temperature;BME280_humidity;BME280_pressure;Samples;Min_cycle;Max_cycle;Signal;HPM_P1;HPM_P2
2023/05/03 12:32:53;;;;;;;10.90;4.90;;;;;;;22.94;47.81;101274.19;4879698;29;20052;-81
2023/05/03 12:35:20;;;;;;;8.98;5.18;;;;;;;22.51;50.11;101293.88;4880365;29;20068;-81
2023/05/03 12:37:47;;;;;;;12.25;5.60;;;;;;;22.57;51.02;101292.91;4879430;29;20062;-82
2023/05/03 12:40:13;;;;;;;10.82;5.70;;;;;;;23.20;49.18;101289.22;4879637;29;20045;-83
2023/05/03 12:42:42;;;;;;;9.88;5.35;;;;;;;25.59;44.96;101302.81;4879396;29;20029;-82
2023/05/03 12:45:09;;;;;;;9.82;4.15;;;;;;;28.59;38.75;101297.44;4879319;29;20029;-81
2023/05/03 12:47:38;;;;;;;7.35;4.30;;;;;;;29.87;34.54;101299.31;4863588;29;20043;-82
2023/05/03 12:50:04;;;;;;;8.82;4.57;;;;;;;29.91;34.67;101297.63;4880234;29;20032;-83
2023/05/03 12:52:33;;;;;;;10.00;4.80;;;;;;;29.23;34.54;101292.94;4848587;29;20061;-82
2023/05/03 12:54:58;;;;;;;14.48;5.70;;;;;;;28.74;36.47;101285.44;4879244;29;20047;-81
2023/05/03 12:57:24;;;;;;;6.72;4.22;;;;;;;29.90;34.15;101298.72;4863815;29;20040;-84
2023/05/03 12:59:52;;;;;;;12.05;5.45;;;;;;;30.23;31.34;101277.59;4863394;29;20037;-80
2023/05/03 13:02:19;;;;;;;10.60;6.10;;;;;;;31.23;31.71;101292.34;4879108;29;20064;-80
2023/05/03 13:04:45;;;;;;;7.68;4.25;;;;;;;31.79;29.06;101292.53;4863730;29;20359;-82
2023/05/03 13:07:15;;;;;;;9.88;5.28;;;;;;;31.46;29.13;101298.09;4863462;29;20044;-79
2023/05/03 13:09:47;;;;;;;9.77;4.28;;;;;;;31.70;29.73;101289.63;4878908;29;20033;-80
2023/05/03 13:12:13;;;;;;;12.50;6.30;;;;;;;32.15;29.44;101287.13;4878680;29;20040;-81
2023/05/03 13:14:41;;;;;;;9.85;5.88;;;;;;;31.95;28.99;101269.72;4878735;29;20041;-81
2023/05/03 13:17:06;;;;;;;5.32;3.58;;;;;;;32.02;28.97;101291.59;4863719;29;20040;-81
2023/05/03 13:19:32;;;;;;;8.82;5.53;;;;;;;30.80;30.36;101263.81;4880093;29;20033;-81
2023/05/03 13:21:58;;;;;;;7.60;4.88;;;;;;;30.33;30.01;101285.00;4878918;29;20033;-81
2023/05/03 13:24:23;;;;;;;9.02;5.25;;;;;;;30.24;30.37;101280.06;4879746;29;20589;-80
2023/05/03 13:26:49;;;;;;;7.55;5.10;;;;;;;29.55;32.00;101284.06;4878828;29;20037;-81
2023/05/03 13:29:15;;;;;;;5.93;4.57;;;;;;;29.48;31.74;101275.25;4879915;29;20033;-81
2023/05/03 13:31:41;;;;;;;10.07;5.60;;;;;;;30.12;31.30;101285.19;4878493;29;20428;-81
2023/05/03 13:34:06;;;;;;;10.85;4.28;;;;;;;31.02;30.56;101279.91;4862945;29;20460;-81
2023/05/03 13:36:32;;;;;;;9.20;4.13;;;;;;;31.49;29.82;101267.78;4862892;29;20041;-80
2023/05/03 13:38:58;;;;;;;9.85;5.60;;;;;;;30.91;30.30;101262.56;4880057;29;20076;-80
2023/05/03 13:41:24;;;;;;;8.60;4.88;;;;;;;28.93;31.89;101278.97;4863422;29;20033;-81
2023/05/03 13:43:52;;;;;;;8.88;4.97;;;;;;;26.94;34.65;101260.00;4879547;29;20041;-81
2023/05/03 13:46:18;;;;;;;8.68;5.65;;;;;;;27.37;35.58;101271.69;4878723;29;20029;-80
2023/05/03 13:48:44;;;;;;;6.78;4.90;;;;;;;29.23;32.40;101271.59;4878224;29;20108;-81
2023/05/03 13:51:12;;;;;;;9.60;5.18;;;;;;;30.16;31.38;101264.06;4878614;29;20104;-80
2023/05/03 13:53:38;;;;;;;8.93;4.65;;;;;;;30.49;29.26;101261.47;4878654;29;20053;-81
2023/05/03 13:56:06;;;;;;;6.57;3.70;;;;;;;28.38;32.06;101257.94;4848013;29;20535;-80
2023/05/03 13:58:35;;;;;;;10.10;4.30;;;;;;;28.09;33.56;101257.78;4879453;29;20502;-80
2023/05/03 14:01:01;;;;;;;8.35;4.45;;;;;;;27.41;34.68;101261.72;4877722;29;20068;-79
2023/05/03 14:03:45;;;;;;;9.15;5.25;;;;;;;26.83;35.80;101247.28;4878237;29;20036;-81
2023/05/03 14:06:11;;;;;;;13.57;5.72;;;;;;;28.50;33.87;101264.00;4862937;29;20048;-79
2023/05/03 14:08:37;;;;;;;13.35;6.60;;;;;;;28.99;32.86;101246.53;4862660;29;20033;-79
2023/05/03 14:11:06;;;;;;;7.30;4.00;;;;;;;28.61;32.93;101251.78;4879290;29;20101;-80
2023/05/03 14:13:31;;;;;;;11.00;6.15;;;;;;;28.70;32.62;101252.81;4878309;29;20093;-80
2023/05/03 14:16:00;;;;;;;9.07;4.03;;;;;;;27.16;35.23;101252.28;4879522;29;20033;-81
2023/05/03 14:18:27;;;;;;;9.90;4.68;;;;;;;25.06;37.65;101236.56;4878206;29;20113;-82
2023/05/03 14:20:58;;;;;;;14.35;5.18;;;;;;;23.40;41.26;101244.84;4862912;29;20041;-82
2023/05/03 14:23:29;;;;;;;9.02;5.57;;;;;;;21.96;44.03;101248.56;4878109;29;20029;-82
2023/05/03 14:25:56;;;;;;;11.30;5.40;;;;;;;21.17;46.73;101251.59;4847838;29;20044;-82
2023/05/03 14:28:22;;;;;;;9.20;4.88;;;;;;;20.86;48.46;101244.47;4862239;29;20029;-82
2023/05/03 14:30:50;;;;;;;8.77;4.15;;;;;;;20.36;49.03;101177.25;4893221;29;20413;-81
2023/05/03 14:33:17;;;;;;;6.97;4.78;;;;;;;20.51;48.96;101189.63;4878301;29;20038;-82
2023/05/03 14:35:44;;;;;;;9.43;4.90;;;;;;;20.94;48.56;101238.69;4862970;29;20033;-82
2023/05/03 14:38:14;;;;;;;9.65;5.32;;;;;;;21.50;47.69;101236.56;4862875;29;20048;-82
2023/05/03 14:40:41;;;;;;;8.25;4.63;;;;;;;21.86;45.62;101175.28;4861817;29;20097;-81
2023/05/03 14:43:08;;;;;;;9.15;5.40;;;;;;;21.42;46.89;101232.25;4847779;29;20044;-82
2023/05/03 14:45:35;;;;;;;11.55;5.10;;;;;;;20.39;49.21;101230.56;4847476;29;20029;-82
2023/05/03 14:48:02;;;;;;;13.80;6.53;;;;;;;19.27;52.35;101176.94;4881010;29;20484;-82
2023/05/03 14:50:32;;;;;;;10.05;4.78;;;;;;;19.01;52.99;101228.94;4881370;29;20448;-82
2023/05/03 14:52:58;;;;;;;10.18;4.88;;;;;;;18.60;53.81;101232.91;4865579;29;20468;-81
2023/05/03 14:55:28;;;;;;;8.65;4.68;;;;;;;18.21;55.74;101230.16;4865804;29;20065;-82
2023/05/03 14:57:55;;;;;;;8.10;3.83;;;;;;;17.96;57.08;101215.59;4866086;29;20040;-82
2023/05/03 15:00:22;;;;;;;7.28;3.28;;;;;;;17.90;57.17;101191.97;4881283;29;20131;-82
2023/05/03 15:02:53;;;;;;;7.60;3.95;;;;;;;18.05;57.22;101225.22;4866145;29;20127;-83
2023/05/03 15:05:20;;;;;;;6.63;3.47;;;;;;;18.21;55.94;101216.56;4881590;29;20124;-82
2023/05/03 15:07:46;;;;;;;9.10;4.70;;;;;;;18.28;55.14;101197.47;4850525;29;20041;-82
2023/05/03 15:10:11;;;;;;;6.97;4.40;;;;;;;18.50;54.60;101198.00;4865839;29;20051;-82
2023/05/03 15:12:38;;;;;;;8.93;3.85;;;;;;;18.90;54.19;101205.97;4865609;29;20064;-81
2023/05/03 15:15:11;;;;;;;6.40;3.65;;;;;;;19.18;52.90;101210.97;4865774;29;20437;-82
2023/05/03 15:17:36;;;;;;;;;;;;;;;19.37;52.45;101205.59;4865625;29;20033;-80
2023/05/03 15:20:14;;;;;;;11.40;3.85;;;;;;;19.55;50.89;101206.50;4881489;29;20285;-82
2023/05/03 15:22:49;;;;;;;9.43;5.45;;;;;;;19.53;50.75;101185.97;4864301;29;20032;-82
2023/05/03 15:25:21;;;;;;;7.45;4.90;;;;;;;19.63;50.60;101150.78;4847369;29;20047;-86
2023/05/03 15:27:47;;;;;;;12.77;4.73;;;;;;;19.53;50.59;101148.59;4864905;29;20036;-82
2023/05/03 15:30:20;;;;;;;13.40;7.05;;;;;;;19.53;51.87;101191.41;4881899;29;20398;-82
2023/05/03 15:32:56;;;;;;;16.70;8.75;;;;;;;19.22;51.98;101146.78;4880303;29;20092;-83
2023/05/03 15:35:23;;;;;;;10.10;3.95;;;;;;;19.31;50.98;101159.06;4865075;29;20090;-81
2023/05/03 15:37:50;;;;;;;5.90;4.22;;;;;;;19.66;51.90;101183.13;4880581;29;20033;-81
2023/05/03 15:40:17;;;;;;;6.47;4.88;;;;;;;19.84;50.25;101162.34;4880315;29;20044;-81
2023/05/03 15:42:48;;;;;;;8.20;4.32;;;;;;;20.19;50.06;101185.25;4881675;29;20116;-80
2023/05/03 15:45:27;;;;;;;11.60;4.97;;;;;;;20.12;48.17;101170.84;4849992;29;20033;-82
2023/05/03 15:47:59;;;;;;;9.73;4.45;;;;;;;19.90;49.31;101175.06;4865112;29;20033;-83
2023/05/03 15:50:29;;;;;;;9.85;6.20;;;;;;;19.84;50.73;101200.56;4864991;29;20040;-81
2023/05/03 15:53:15;;;;;;;9.65;5.70;;;;;;;19.28;51.49;101140.44;4879668;29;20495;-82
2023/05/03 15:55:41;;;;;;;9.35;3.80;;;;;;;19.08;51.57;101143.38;4881495;29;20056;-80
2023/05/03 15:58:08;;;;;;;8.32;4.80;;;;;;;19.04;53.13;101171.28;4879531;29;20033;-80
2023/05/03 16:00:37;;;;;;;5.60;3.72;;;;;;;18.81;54.63;101152.78;4895367;29;20037;-80
2023/05/03 16:03:06;;;;;;;11.90;5.10;;;;;;;19.03;53.35;101177.78;4881323;29;20486;-83
2023/05/03 16:05:32;;;;;;;7.95;4.10;;;;;;;19.31;53.84;101175.44;4894773;29;20543;-80
2023/05/03 16:07:58;;;;;;;9.10;5.05;;;;;;;19.64;52.77;101171.56;4879049;29;20116;-80
2023/05/03 16:10:23;;;;;;;12.57;5.32;;;;;;;19.89;52.25;101168.78;4879412;29;20396;-83
2023/05/03 16:12:49;;;;;;;11.95;5.60;;;;;;;19.80;50.77;101153.78;4879916;29;20185;-84
2023/05/03 16:15:18;;;;;;;9.63;4.68;;;;;;;19.76;51.11;101167.03;4880435;29;20033;-80
2023/05/03 16:17:47;;;;;;;8.82;5.65;;;;;;;19.59;51.91;101178.75;4879773;29;20029;-79
2023/05/03 16:20:12;;;;;;;9.63;5.32;;;;;;;19.45;52.36;101186.22;4864290;29;20365;-80
2023/05/03 16:22:38;;;;;;;7.63;4.75;;;;;;;19.19;52.40;101182.69;4895155;29;20033;-82
2023/05/03 16:25:10;;;;;;;13.88;6.80;;;;;;;18.93;52.91;101174.72;4879350;29;20459;-78
2023/05/03 16:27:41;;;;;;;12.38;5.18;;;;;;;18.89;53.21;101193.38;4865195;29;20044;-79
2023/05/03 16:30:08;;;;;;;11.57;5.45;;;;;;;18.82;53.33;101188.00;4879876;29;20033;-78
2023/05/03 16:32:34;;;;;;;12.18;5.22;;;;;;;18.71;53.89;101191.41;4863359;29;20049;-77
2023/05/03 16:35:02;;;;;;;11.98;6.53;;;;;;;18.63;55.13;101189.75;4879286;29;20037;-78
2023/05/03 16:37:32;;;;;;;9.45;4.70;;;;;;;18.62;55.66;101196.25;4863994;29;20048;-79
2023/05/03 16:40:08;;;;;;;7.18;3.63;;;;;;;18.40;56.15;101187.56;4878910;29;20473;-79
2023/05/03 16:42:38;;;;;;;8.57;4.97;;;;;;;18.07;56.83;101163.22;4849146;29;20048;-82
2023/05/03 16:45:06;;;;;;;9.32;4.97;;;;;;;17.94;57.18;101177.72;4878936;29;20036;-79
2023/05/03 16:47:33;;;;;;;12.25;5.15;;;;;;;17.85;58.55;101173.56;4879221;29;20037;-82
2023/05/03 16:50:02;;;;;;;6.18;3.78;;;;;;;17.71;58.44;101180.06;4864135;29;20044;-79
2023/05/03 16:52:27;;;;;;;6.85;3.97;;;;;;;17.51;59.31;101175.47;4879604;29;20041;-79
2023/05/03 16:54:54;;;;;;;7.60;3.95;;;;;;;17.33;60.07;101172.56;4878556;29;20081;-80
2023/05/03 16:57:24;;;;;;;7.78;3.97;;;;;;;17.12;61.02;101179.06;4878760;29;20029;-79
2023/05/03 16:59:52;;;;;;;6.95;4.32;;;;;;;16.87;62.29;101173.41;4878984;29;20033;-80
2023/05/03 17:02:21;;;;;;;6.70;3.10;;;;;;;16.56;63.22;101182.91;4848423;29;20037;-82
2023/05/03 17:04:47;;;;;;;8.10;3.05;;;;;;;16.15;64.19;101158.59;4878303;29;20131;-79
2023/05/03 17:07:13;;;;;;;8.52;4.38;;;;;;;15.97;65.91;101180.81;4878300;29;20128;-82
2023/05/03 17:09:39;;;;;;;12.75;6.43;;;;;;;15.70;66.97;101159.00;4879526;29;20060;-79
2023/05/03 17:12:05;;;;;;;10.95;6.13;;;;;;;15.64;68.03;101162.47;4878420;29;20037;-83
2023/05/03 17:14:31;;;;;;;10.35;5.38;;;;;;;15.78;67.54;101169.66;4878777;29;20051;-80
2023/05/03 17:16:59;;;;;;;14.95;6.45;;;;;;;15.84;68.02;101170.75;4878506;29;20045;-84
2023/05/03 17:19:41;;;;;;;13.80;6.68;;;;;;;15.96;68.61;101166.44;4847646;29;20044;-81
2023/05/03 17:22:10;;;;;;;12.10;6.65;;;;;;;16.05;68.69;101177.94;4864413;29;20033;-81
2023/05/03 17:24:37;;;;;;;9.93;5.85;;;;;;;16.00;69.61;101164.97;4878275;29;20045;-81
2023/05/03 17:27:07;;;;;;;13.30;6.50;;;;;;;16.08;69.91;101172.09;4879796;29;20029;-84
2023/05/03 17:29:33;;;;;;;10.75;5.50;;;;;;;16.05;70.23;101167.91;4878956;29;20044;-80
2023/05/03 17:32:20;;;;;;;10.63;5.15;;;;;;;16.02;68.45;101164.78;4871547;29;20048;-81
2023/05/03 17:34:49;;;;;;;11.30;7.13;;;;;;;15.93;69.53;101165.97;4862810;29;20068;-83
2023/05/03 17:37:18;;;;;;;9.23;4.13;;;;;;;15.80;70.63;101150.50;4863331;29;20033;-80
2023/05/03 17:39:43;;;;;;;12.90;7.75;;;;;;;15.80;70.88;101164.91;4862919;29;20316;-79
2023/05/03 17:42:09;;;;;;;13.25;5.60;;;;;;;15.70;70.47;101150.88;4862861;29;20033;-79
2023/05/03 17:44:35;;;;;;;11.18;5.97;;;;;;;15.69;70.87;101168.19;4877595;29;20051;-80
2023/05/03 17:47:03;;;;;;;12.23;6.07;;;;;;;15.67;70.95;101156.66;4863465;29;20044;-82
2023/05/03 17:49:33;;;;;;;9.98;5.57;;;;;;;15.63;70.99;101149.94;4862857;29;20041;-79
2023/05/03 17:52:03;;;;;;;11.13;5.57;;;;;;;15.58;71.16;101142.41;4878447;29;20060;-81
2023/05/03 17:54:28;;;;;;;15.20;5.68;;;;;;;15.68;71.64;101146.66;4863036;29;20045;-80
2023/05/03 17:56:55;;;;;;;11.35;5.55;;;;;;;15.73;71.41;101150.44;4878384;29;20037;-82
2023/05/03 17:59:26;;;;;;;9.82;5.03;;;;;;;15.67;70.92;101126.84;4877990;29;20040;-83
2023/05/03 18:01:53;;;;;;;7.28;4.28;;;;;;;15.88;69.66;101157.59;4862767;29;20131;-83
2023/05/03 18:04:19;;;;;;;17.02;8.25;;;;;;;15.87;69.87;101154.06;4878077;29;20063;-80
2023/05/03 18:06:45;;;;;;;17.40;9.15;;;;;;;15.99;69.99;101157.06;4862624;29;20452;-83
2023/05/03 18:09:12;;;;;;;20.77;10.50;;;;;;;16.03;69.68;101152.88;4847897;29;20164;-79
2023/05/03 18:11:39;;;;;;;12.00;6.43;;;;;;;16.02;70.14;101140.38;4848212;29;20096;-84
2023/05/03 18:14:05;;;;;;;16.48;8.80;;;;;;;15.92;70.70;101137.19;4878377;29;20033;-80
2023/05/03 18:16:31;;;;;;;14.95;7.03;;;;;;;15.88;71.07;101134.06;4878103;29;20037;-83
2023/05/03 18:18:57;;;;;;;29.15;13.77;;;;;;;15.73;72.29;101125.22;4847206;29;20468;-80
2023/05/03 18:21:26;;;;;;;11.30;6.30;;;;;;;15.70;71.90;101131.06;4848464;29;20044;-80
2023/05/03 18:23:52;;;;;;;13.43;6.45;;;;;;;15.58;73.13;101130.72;4865668;29;20549;-81
2023/05/03 18:26:22;;;;;;;14.80;7.85;;;;;;;15.47;74.50;101123.16;4866114;29;20037;-84
2023/05/03 18:28:48;;;;;;;11.77;5.65;;;;;;;15.43;74.59;101125.44;4897069;29;20037;-82
2023/05/03 18:31:14;;;;;;;10.13;5.97;;;;;;;15.34;75.23;101115.78;4879999;29;20084;-80
2023/05/03 18:33:40;;;;;;;12.18;6.95;;;;;;;15.25;75.60;101114.28;4849272;29;20037;-84
2023/05/03 18:36:10;;;;;;;10.38;6.65;;;;;;;15.17;76.69;101126.94;4850441;29;20045;-86
2023/05/03 18:38:45;;;;;;;11.80;7.10;;;;;;;15.09;76.26;101127.06;4849077;29;20037;-83
2023/05/03 18:41:14;;;;;;;9.07;5.85;;;;;;;14.95;76.70;101101.78;4867080;29;20048;-81
2023/05/03 18:43:44;;;;;;;11.55;4.85;;;;;;;14.94;76.99;101120.91;4880591;29;20444;-83
2023/05/03 18:46:15;;;;;;;9.82;6.00;;;;;;;14.84;77.89;101115.81;4881003;29;20407;-88
2023/05/03 18:48:40;;;;;;;10.38;5.65;;;;;;;14.69;78.64;101109.66;4865655;29;20045;-87
2023/05/03 18:51:07;;;;;;;9.10;3.97;;;;;;;14.61;78.55;101112.50;4880699;29;20033;-82
2023/05/03 18:53:33;;;;;;;9.10;4.50;;;;;;;14.46;77.87;101109.81;4881106;29;20112;-85
2023/05/03 18:56:03;;;;;;;10.38;5.90;;;;;;;14.24;78.12;101096.28;4866051;29;20040;-86
2023/05/03 18:58:30;;;;;;;9.68;5.65;;;;;;;14.15;78.84;101102.00;4880743;29;20040;-88
2023/05/03 19:00:58;;;;;;;8.73;4.90;;;;;;;14.01;79.45;101114.53;4880893;29;20086;-84
2023/05/03 19:03:30;;;;;;;14.05;4.93;;;;;;;13.91;79.58;101095.91;4880910;29;20120;-82
2023/05/03 19:06:03;;;;;;;5.90;4.00;;;;;;;13.85;79.61;101104.78;4883588;29;20534;-83
2023/05/03 19:08:29;;;;;;;7.37;4.97;;;;;;;13.70;80.77;101095.84;4882706;29;20029;-83
2023/05/03 19:11:05;;;;;;;12.43;5.93;;;;;;;13.63;81.84;101098.47;4850443;29;20276;-84
2023/05/03 19:13:40;;;;;;;8.48;5.68;;;;;;;13.50;82.99;101093.72;4880414;29;20029;-87
2023/05/03 19:16:07;;;;;;;8.38;4.82;;;;;;;13.34;83.58;101078.53;4865787;29;20152;-81
2023/05/03 19:18:36;;;;;;;6.45;4.22;;;;;;;13.32;84.62;101088.69;4849970;29;20037;-83
2023/05/03 19:21:03;;;;;;;10.68;4.47;;;;;;;13.22;84.57;101079.97;4865755;29;20037;-86
2023/05/03 19:23:33;;;;;;;8.30;5.10;;;;;;;13.25;84.25;101094.97;4880689;29;20041;-83
2023/05/03 19:26:02;;;;;;;8.35;4.95;;;;;;;13.11;84.29;101075.03;4881578;29;20028;-83
2023/05/03 19:28:27;;;;;;;8.48;5.15;;;;;;;13.19;84.30;101086.59;4880278;29;20511;-79
2023/05/03 19:30:53;;;;;;;8.98;4.72;;;;;;;13.15;84.27;101081.75;4849785;29;20037;-84
2023/05/03 19:33:20;;;;;;;8.95;5.90;;;;;;;13.16;84.38;101086.97;4879047;29;20037;-86
2023/05/03 19:35:48;;;;;;;11.02;6.40;;;;;;;13.12;84.95;101077.53;4880152;29;20035;-79
2023/05/03 19:38:14;;;;;;;14.50;7.20;;;;;;;13.07;85.37;101076.41;4864905;29;20361;-82
2023/05/03 19:40:40;;;;;;;10.40;5.65;;;;;;;13.06;85.50;101067.50;4880257;29;20476;-81
2023/05/03 19:43:06;;;;;;;7.38;4.22;;;;;;;13.06;85.34;101070.19;4879777;29;20051;-83
2023/05/03 19:45:32;;;;;;;8.57;5.22;;;;;;;13.04;85.29;101061.44;4881030;29;20402;-87
2023/05/03 19:47:58;;;;;;;8.48;5.68;;;;;;;13.04;85.10;101072.22;4864981;29;20041;-86
2023/05/03 19:50:24;;;;;;;9.23;5.47;;;;;;;12.98;85.52;101064.88;4864585;29;20132;-84
2023/05/03 19:52:51;;;;;;;6.43;4.50;;;;;;;12.96;86.12;101073.16;4880271;29;20025;-85
2023/05/03 19:55:17;;;;;;;8.13;4.75;;;;;;;12.96;85.91;101075.00;4879791;29;20033;-87
2023/05/03 19:57:43;;;;;;;11.65;5.50;;;;;;;12.99;85.49;101066.53;4849438;29;20036;-85
2023/05/03 20:00:10;;;;;;;9.65;6.28;;;;;;;13.01;85.74;101067.22;4864948;29;20040;-82
2023/05/03 20:02:36;;;;;;;11.15;6.93;;;;;;;12.91;85.73;101058.53;4864890;29;20131;-86
2023/05/03 20:05:02;;;;;;;9.70;5.72;;;;;;;12.87;86.64;101066.16;4864533;29;20033;-84
2023/05/03 20:07:29;;;;;;;10.23;6.78;;;;;;;12.83;86.75;101055.91;4879837;29;20041;-85
2023/05/03 20:09:55;;;;;;;12.27;6.18;;;;;;;12.84;86.71;101065.72;4879241;29;20051;-84
2023/05/03 20:12:21;;;;;;;11.63;5.50;;;;;;;12.82;87.03;101055.09;4864653;29;20544;-86
2023/05/03 20:14:46;;;;;;;8.52;5.10;;;;;;;12.85;86.82;101064.66;4864464;29;20037;-86
2023/05/03 20:17:12;;;;;;;9.63;5.75;;;;;;;12.84;86.71;101063.84;4879936;29;20037;-86
2023/05/03 20:19:38;;;;;;;10.73;5.57;;;;;;;12.79;87.10;101065.41;4864332;29;20473;-86
2023/05/03 20:22:03;;;;;;;9.68;5.70;;;;;;;12.75;87.40;101065.78;4879694;29;20468;-87
2023/05/03 20:24:29;;;;;;;9.20;5.63;;;;;;;12.56;87.47;101025.81;4864523;29;20190;-87
2023/05/03 20:26:55;;;;;;;9.35;5.03;;;;;;;12.71;87.51;101055.53;4864192;29;20029;-85
2023/05/03 20:29:20;;;;;;;10.10;5.05;;;;;;;12.71;87.56;101053.66;4863995;29;20048;-86
2023/05/03 20:31:46;;;;;;;9.50;5.32;;;;;;;12.68;88.10;101047.81;4879510;29;20056;-86
2023/05/03 20:34:12;;;;;;;7.25;3.75;;;;;;;12.61;89.44;101038.75;4864327;29;20032;-85
2023/05/03 20:36:37;;;;;;;6.25;4.05;;;;;;;12.53;90.55;101040.50;4879176;29;20036;-84
2023/05/03 20:39:04;;;;;;;9.23;4.90;;;;;;;12.55;91.25;101051.13;4879239;29;20512;-90
2023/05/03 20:41:31;;;;;;;5.78;3.65;;;;;;;12.54;91.30;101052.13;4879586;29;20097;-85
2023/05/03 20:43:59;;;;;;;9.13;5.85;;;;;;;12.41;91.62;101041.97;4879409;29;20037;-89
2023/05/03 20:46:26;;;;;;;9.98;4.15;;;;;;;12.46;91.83;101052.19;4879272;29;20037;-92
2023/05/03 20:48:52;;;;;;;7.05;4.50;;;;;;;12.46;91.60;101052.19;4879464;29;20045;-88
2023/05/03 20:51:18;;;;;;;7.45;4.80;;;;;;;12.38;91.56;101053.09;4879660;29;20093;-91
2023/05/03 20:53:43;;;;;;;9.65;4.78;;;;;;;12.39;91.77;101056.66;4879049;29;20033;-89
2023/05/03 20:56:10;;;;;;;7.55;4.72;;;;;;;12.34;92.38;101049.09;4879243;29;20036;-84
2023/05/03 20:58:36;;;;;;;11.27;4.80;;;;;;;12.30;92.48;101055.84;4863784;29;20033;-85
2023/05/03 21:01:03;;;;;;;4.65;3.25;;;;;;;12.25;92.35;101050.16;4878829;29;20040;-89
2023/05/03 21:03:30;;;;;;;8.27;4.72;;;;;;;12.26;92.18;101039.19;4863450;29;20041;-86
2023/05/03 21:05:56;;;;;;;6.68;4.32;;;;;;;12.22;92.10;101029.78;4878627;29;20036;-79
2023/05/03 21:08:23;;;;;;;9.23;4.93;;;;;;;12.23;91.87;101023.41;4878796;29;20036;-84
2023/05/03 21:10:48;;;;;;;11.13;5.78;;;;;;;12.17;92.43;101017.88;4863661;29;20043;-81
2023/05/03 21:13:15;;;;;;;13.32;6.97;;;;;;;12.15;92.92;101026.16;4863630;29;20033;-84
2023/05/03 21:15:43;;;;;;;14.15;7.43;;;;;;;12.13;93.59;101024.66;4863620;29;20494;-85
2023/05/03 21:18:10;;;;;;;14.25;8.15;;;;;;;12.05;94.10;101021.00;4879149;29;20033;-86
2023/05/03 21:20:39;;;;;;;10.40;7.07;;;;;;;12.05;93.96;101030.94;4863214;29;20480;-87
2023/05/03 21:23:05;;;;;;;9.00;5.47;;;;;;;12.00;94.77;101007.22;4878980;29;20033;-84
2023/05/03 21:25:40;;;;;;;12.30;5.60;;;;;;;12.03;94.86;101006.84;4894505;29;20045;-84
2023/05/03 21:28:06;;;;;;;7.97;5.20;;;;;;;11.99;94.75;100997.47;4878491;29;20407;-86
2023/05/03 21:30:32;;;;;;;7.93;5.00;;;;;;;12.07;94.67;100991.19;4878334;29;20040;-90
2023/05/03 21:32:57;;;;;;;7.72;4.82;;;;;;;12.00;94.92;100977.56;4878579;29;20049;-83
2023/05/03 21:35:26;;;;;;;8.57;5.30;;;;;;;12.02;95.12;100977.41;4863123;29;20033;-81
2023/05/03 21:37:54;;;;;;;8.25;4.65;;;;;;;12.05;95.14;100972.47;4863337;29;20124;-83
2023/05/03 21:40:20;;;;;;;4.65;3.45;;;;;;;12.03;94.97;100952.13;4878834;29;20084;-82
2023/05/03 21:42:54;;;;;;;8.88;4.70;;;;;;;11.96;95.02;100943.94;4863400;29;20133;-83
2023/05/03 21:45:20;;;;;;;8.15;5.10;;;;;;;12.12;94.84;100969.91;4863166;29;20400;-81
2023/05/03 21:47:46;;;;;;;9.88;5.03;;;;;;;12.13;94.68;100970.75;4878722;29;20041;-81
2023/05/03 21:50:15;;;;;;;8.07;5.25;;;;;;;12.12;94.58;100964.53;4863237;29;20125;-83
2023/05/03 21:52:41;;;;;;;6.90;4.38;;;;;;;12.17;94.27;100963.97;4847810;29;20037;-85
2023/05/03 21:55:07;;;;;;;7.97;5.20;;;;;;;12.09;94.09;100943.28;4847798;29;20041;-83
2023/05/03 21:57:33;;;;;;;9.73;4.68;;;;;;;12.06;94.65;100946.34;4866429;29;20040;-84
2023/05/03 21:59:59;;;;;;;6.80;4.25;;;;;;;12.12;94.71;100963.66;4867042;29;20391;-83
2023/05/03 22:02:24;;;;;;;12.32;5.43;;;;;;;12.07;95.23;100951.56;4882259;29;20033;-83
2023/05/03 22:04:50;;;;;;;12.52;4.85;;;;;;;12.06;95.39;100960.66;4882247;29;20472;-86
2023/05/03 22:07:16;;;;;;;10.95;4.95;;;;;;;12.09;95.71;100954.06;4882005;29;20482;-85
2023/05/03 22:09:46;;;;;;;11.57;4.80;;;;;;;12.05;96.11;100947.38;4851162;29;20040;-84
2023/05/03 22:12:12;;;;;;;14.10;5.30;;;;;;;12.06;96.78;100954.44;4866499;29;20127;-80
2023/05/03 22:14:42;;;;;;;15.38;5.97;;;;;;;11.78;96.94;100902.94;4866544;29;20502;-82
2023/05/03 22:17:08;;;;;;;8.45;4.28;;;;;;;11.90;97.29;100924.94;4866205;29;20033;-83
2023/05/03 22:19:37;;;;;;;6.93;5.20;;;;;;;11.80;96.74;100917.06;4881534;29;20069;-81
2023/05/03 22:22:05;;;;;;;9.55;4.57;;;;;;;11.78;96.84;100930.72;4881835;29;20125;-83
2023/05/03 22:24:31;;;;;;;10.65;5.03;;;;;;;11.75;97.07;100931.09;4881903;29;20047;-82
2023/05/03 22:27:08;;;;;;;10.82;4.97;;;;;;;12.06;97.44;100959.84;4881407;29;20040;-83
2023/05/03 22:29:35;;;;;;;10.57;5.50;;;;;;;11.76;97.00;100902.28;4867781;29;20131;-84
2023/05/03 22:32:03;;;;;;;10.48;5.70;;;;;;;12.02;97.22;100939.66;4881319;29;20040;-85
2023/05/03 22:34:35;;;;;;;6.68;4.82;;;;;;;12.03;97.50;100928.69;4880466;29;20127;-82
2023/05/03 22:37:11;;;;;;;8.82;4.72;;;;;;;12.15;97.06;100947.97;4881685;29;20048;-83
2023/05/03 22:39:40;;;;;;;10.48;5.15;;;;;;;12.05;97.49;100937.44;4881192;29;20033;-81
2023/05/03 22:42:13;;;;;;;6.85;4.45;;;;;;;11.85;96.89;100891.28;4866241;29;20040;-82
2023/05/03 22:44:47;;;;;;;7.78;4.55;;;;;;;11.91;96.85;100889.72;4867397;29;20049;-81
2023/05/03 22:47:18;;;;;;;7.38;4.68;;;;;;;12.25;96.07;100943.19;4882437;29;20063;-87
2023/05/03 22:49:43;;;;;;;9.73;4.15;;;;;;;12.15;95.94;100918.31;4865717;29;20037;-81
2023/05/03 22:52:09;;;;;;;6.70;4.10;;;;;;;12.31;95.78;100936.22;4881431;29;20518;-82
2023/05/03 22:54:37;;;;;;;5.20;3.70;;;;;;;12.30;95.20;100940.78;4865967;29;20029;-81
2023/05/03 22:57:03;;;;;;;8.50;5.05;;;;;;;12.36;94.68;100947.28;4881727;29;20033;-81
2023/05/03 22:59:28;;;;;;;7.40;4.25;;;;;;;12.34;94.57;100941.22;4881203;29;20033;-82
2023/05/03 23:01:54;;;;;;;10.50;5.20;;;;;;;12.38;94.33;100950.63;4896986;29;20380;-83
2023/05/03 23:04:20;;;;;;;6.25;4.55;;;;;;;12.38;93.92;100947.91;4865423;29;20120;-82
2023/05/03 23:06:45;;;;;;;9.38;4.75;;;;;;;12.42;93.44;100945.72;4865185;29;20507;-80
2023/05/03 23:09:11;;;;;;;9.98;5.53;;;;;;;12.41;93.22;100946.72;4881186;29;20037;-83
2023/05/03 23:11:38;;;;;;;7.38;4.45;;;;;;;12.30;92.63;100927.28;4865507;29;20140;-82
2023/05/03 23:14:04;;;;;;;9.45;4.20;;;;;;;12.40;92.29;100935.09;4881006;29;20068;-86
2023/05/03 23:16:30;;;;;;;6.93;3.97;;;;;;;12.45;91.68;100942.66;4865713;29;20045;-80
2023/05/03 23:18:56;;;;;;;7.28;3.70;;;;;;;12.44;91.22;100935.59;4880793;29;20085;-82
2023/05/03 23:21:22;;;;;;;8.35;4.30;;;;;;;12.41;90.70;100930.53;4850294;29;20037;-81
2023/05/03 23:23:48;;;;;;;8.73;5.95;;;;;;;12.45;90.83;100942.66;4880683;29;20111;-80
2023/05/03 23:26:15;;;;;;;9.00;4.57;;;;;;;12.35;91.30;100931.28;4865103;29;20052;-82
2023/05/03 23:28:41;;;;;;;9.23;4.32;;;;;;;12.29;91.37;100933.69;4865754;29;20041;-82
2023/05/03 23:31:10;;;;;;;7.13;3.78;;;;;;;12.24;92.17;100936.09;4864841;29;20043;-80
2023/05/03 23:33:35;;;;;;;7.13;4.70;;;;;;;12.17;92.40;100926.22;4849854;29;20388;-83
2023/05/03 23:36:01;;;;;;;8.88;4.78;;;;;;;12.21;92.58;100938.31;4880692;29;20048;-81
2023/05/03 23:38:27;;;;;;;6.85;4.30;;;;;;;12.17;92.34;100924.38;4880282;29;20029;-79
2023/05/03 23:40:52;;;;;;;6.28;3.90;;;;;;;12.16;91.74;100914.59;4865219;29;20065;-82
2023/05/03 23:43:21;;;;;;;9.40;3.83;;;;;;;12.18;91.86;100909.88;4880458;29;20132;-81
2023/05/03 23:45:47;;;;;;;6.22;3.33;;;;;;;12.20;92.38;100913.22;4864742;29;20465;-81
2023/05/03 23:48:15;;;;;;;7.13;3.53;;;;;;;12.19;91.88;100897.22;4864754;29;20037;-82
2023/05/03 23:50:40;;;;;;;6.68;3.30;;;;;;;12.17;91.87;100901.97;4864903;29;20486;-81
2023/05/03 23:53:09;;;;;;;7.65;4.00;;;;;;;12.15;91.88;100891.38;4880431;29;20049;-80
2023/05/03 23:55:37;;;;;;;7.38;4.70;;;;;;;12.21;92.06;100898.72;4865264;29;20032;-80